SAS43RT EDDH-EFHK
Flight info
| Callsign | SAS43RT |
|---|---|
| Flight time | 1h 40m |
| Altitude | 37000 |
| Route | LUGEG3B LUGEG P605 MOSAT DCT TIDVU DCT KAL DCT NEREN DCT ALAMI DCT OKEVU DCT EVADI Y370 DIVAM |
| Aircraft | A20N/M-SDE2E3FGHIRWXY/LB1 |
Departure
| Time | 2026-04-23 17:29 |
|---|---|
| Airport | Hamburg Helmut Schmidt Airport (EDDH) |
Arrival
| Time | 2026-04-23 19:10 |
|---|---|
| Airport | Helsinki Vantaa Airport (EFHK) |
| Time | Latitude | Longitude | Altitude | Speed | Heading |
|---|---|---|---|---|---|
| 2026-04-23 16:57 | 53.62964 | 10.00291 | 50 ft | 0 kts | 122° |
| 2026-04-23 17:21 | 53.62974 | 10.00266 | 46 ft | 0 kts | 123° |
| 2026-04-23 17:21 | 53.62988 | 10.00229 | 48 ft | 2 kts | 124° |
| 2026-04-23 17:22 | 53.62998 | 10.00206 | 50 ft | 2 kts | 125° |
| 2026-04-23 17:22 | 53.63018 | 10.00162 | 47 ft | 2 kts | 137° |
| 2026-04-23 17:23 | 53.63040 | 10.00151 | 50 ft | 0 kts | 211° |
| 2026-04-23 17:26 | 53.62954 | 10.00064 | 49 ft | 13 kts | 211° |
| 2026-04-23 17:26 | 53.62899 | 9.99920 | 50 ft | 0 kts | 245° |
| 2026-04-23 17:27 | 53.62892 | 9.99896 | 47 ft | 10 kts | 245° |
| 2026-04-23 17:27 | 53.62865 | 9.99770 | 49 ft | 8 kts | 280° |
| 2026-04-23 17:28 | 53.62897 | 9.99717 | 49 ft | 0 kts | 331° |
| 2026-04-23 17:28 | 53.62898 | 9.99716 | 49 ft | 3 kts | 331° |
| 2026-04-23 17:28 | 53.63081 | 9.99548 | 49 ft | 63 kts | 334° |
| 2026-04-23 17:28 | 53.63648 | 9.99065 | 49 ft | 118 kts | 334° |
| 2026-04-23 17:29 | 53.64519 | 9.98326 | 49 ft | 160 kts | 333° |
| 2026-04-23 17:29 | 53.65609 | 9.97513 | 311 ft | 177 kts | 334° |
| 2026-04-23 17:29 | 53.67986 | 9.96138 | 1727 ft | 169 kts | 339° |
| 2026-04-23 17:30 | 53.68682 | 9.95727 | 2446 ft | 151 kts | 338° |
| 2026-04-23 17:30 | 53.70866 | 9.95077 | 3838 ft | 152 kts | 1° |
| 2026-04-23 17:30 | 53.72032 | 9.95212 | 4074 ft | 182 kts | 2° |
| 2026-04-23 17:31 | 53.73307 | 9.95825 | 4429 ft | 207 kts | 27° |
| 2026-04-23 17:31 | 53.74386 | 9.97629 | 4846 ft | 229 kts | 55° |
| 2026-04-23 17:31 | 53.75157 | 10.00251 | 4699 ft | 263 kts | 61° |
| 2026-04-23 17:31 | 53.75915 | 10.03028 | 4963 ft | 261 kts | 61° |
| 2026-04-23 17:32 | 53.76671 | 10.05846 | 5010 ft | 269 kts | 62° |
| 2026-04-23 17:32 | 53.77474 | 10.08695 | 4937 ft | 264 kts | 59° |
| 2026-04-23 17:32 | 53.78303 | 10.11490 | 4981 ft | 266 kts | 59° |
| 2026-04-23 17:32 | 53.79039 | 10.13974 | 5389 ft | 268 kts | 59° |
| 2026-04-23 17:33 | 53.79831 | 10.16681 | 6282 ft | 267 kts | 59° |
| 2026-04-23 17:33 | 53.80640 | 10.19471 | 7177 ft | 270 kts | 60° |
| 2026-04-23 17:33 | 53.81469 | 10.22345 | 8017 ft | 274 kts | 60° |
| 2026-04-23 17:33 | 53.82304 | 10.25257 | 8877 ft | 277 kts | 60° |
| 2026-04-23 17:34 | 53.83149 | 10.28209 | 9681 ft | 281 kts | 60° |
| 2026-04-23 17:34 | 53.84010 | 10.31221 | 10103 ft | 285 kts | 60° |
| 2026-04-23 17:34 | 53.85807 | 10.37527 | 10693 ft | 318 kts | 61° |
| 2026-04-23 17:35 | 53.86796 | 10.40996 | 11139 ft | 334 kts | 61° |
| 2026-04-23 17:35 | 53.88823 | 10.48138 | 12697 ft | 339 kts | 61° |
| 2026-04-23 17:35 | 53.89850 | 10.51766 | 13477 ft | 343 kts | 62° |
| 2026-04-23 17:36 | 53.90871 | 10.55379 | 14206 ft | 346 kts | 62° |
| 2026-04-23 17:36 | 53.91916 | 10.59077 | 14857 ft | 350 kts | 62° |
| 2026-04-23 17:36 | 53.92972 | 10.62821 | 15530 ft | 353 kts | 61° |
| 2026-04-23 17:36 | 53.94202 | 10.66452 | 16158 ft | 356 kts | 53° |
| 2026-04-23 17:37 | 53.95726 | 10.69775 | 16800 ft | 358 kts | 46° |
| 2026-04-23 17:37 | 53.97443 | 10.72862 | 17414 ft | 362 kts | 45° |
| 2026-04-23 17:37 | 54.00920 | 10.79173 | 18638 ft | 370 kts | 45° |
| 2026-04-23 17:38 | 54.02679 | 10.82384 | 19181 ft | 373 kts | 45° |
| 2026-04-23 17:38 | 54.04451 | 10.85624 | 19713 ft | 376 kts | 45° |
| 2026-04-23 17:38 | 54.06242 | 10.88899 | 20246 ft | 379 kts | 45° |
| 2026-04-23 17:38 | 54.08019 | 10.92152 | 20778 ft | 382 kts | 45° |
| 2026-04-23 17:39 | 54.09833 | 10.95477 | 21307 ft | 385 kts | 45° |
| 2026-04-23 17:39 | 54.11665 | 10.98839 | 21825 ft | 388 kts | 45° |
| 2026-04-23 17:39 | 54.13501 | 11.02226 | 22336 ft | 391 kts | 45° |
| 2026-04-23 17:39 | 54.15356 | 11.05663 | 22845 ft | 395 kts | 45° |
| 2026-04-23 17:40 | 54.17216 | 11.09117 | 23356 ft | 398 kts | 45° |
| 2026-04-23 17:40 | 54.19093 | 11.12608 | 23843 ft | 401 kts | 45° |
| 2026-04-23 17:40 | 54.20982 | 11.16124 | 24301 ft | 402 kts | 46° |
| 2026-04-23 17:40 | 54.22874 | 11.19656 | 24776 ft | 403 kts | 46° |
| 2026-04-23 17:41 | 54.24768 | 11.23201 | 25225 ft | 405 kts | 46° |
| 2026-04-23 17:41 | 54.28547 | 11.30289 | 26082 ft | 408 kts | 46° |
| 2026-04-23 17:41 | 54.30462 | 11.33889 | 26504 ft | 409 kts | 46° |
| 2026-04-23 17:42 | 54.34309 | 11.41135 | 27124 ft | 413 kts | 47° |
| 2026-04-23 17:42 | 54.36243 | 11.44785 | 27172 ft | 413 kts | 47° |
| 2026-04-23 17:42 | 54.38171 | 11.48429 | 27173 ft | 413 kts | 47° |
| 2026-04-23 17:43 | 54.40099 | 11.52068 | 27170 ft | 412 kts | 46° |
| 2026-04-23 17:43 | 54.42028 | 11.55711 | 27166 ft | 413 kts | 46° |
| 2026-04-23 17:43 | 54.43934 | 11.59315 | 27167 ft | 413 kts | 46° |
| 2026-04-23 17:43 | 54.45861 | 11.62966 | 27165 ft | 412 kts | 46° |
| 2026-04-23 17:44 | 54.47786 | 11.66616 | 27166 ft | 412 kts | 46° |
| 2026-04-23 17:44 | 54.49717 | 11.70282 | 27172 ft | 414 kts | 46° |
| 2026-04-23 17:44 | 54.53608 | 11.77622 | 27979 ft | 415 kts | 45° |
| 2026-04-23 17:45 | 54.55615 | 11.81211 | 28338 ft | 417 kts | 45° |
| 2026-04-23 17:45 | 54.59651 | 11.88468 | 29011 ft | 421 kts | 45° |
| 2026-04-23 17:45 | 54.61662 | 11.92138 | 29351 ft | 422 kts | 45° |
| 2026-04-23 17:46 | 54.65699 | 11.99570 | 29991 ft | 426 kts | 46° |
| 2026-04-23 17:46 | 54.67698 | 12.03265 | 30282 ft | 428 kts | 46° |
| 2026-04-23 17:46 | 54.69733 | 12.07032 | 30568 ft | 429 kts | 46° |
| 2026-04-23 17:47 | 54.71769 | 12.10806 | 30843 ft | 430 kts | 46° |
| 2026-04-23 17:47 | 54.73814 | 12.14605 | 31103 ft | 432 kts | 45° |
| 2026-04-23 17:47 | 54.77905 | 12.22224 | 31769 ft | 432 kts | 45° |
| 2026-04-23 17:48 | 54.79945 | 12.26038 | 32149 ft | 430 kts | 45° |
| 2026-04-23 17:48 | 54.81971 | 12.29832 | 32494 ft | 429 kts | 45° |
| 2026-04-23 17:48 | 54.83968 | 12.33579 | 32826 ft | 428 kts | 45° |
| 2026-04-23 17:48 | 54.85989 | 12.37375 | 33171 ft | 427 kts | 45° |
| 2026-04-23 17:49 | 54.87998 | 12.41153 | 33523 ft | 426 kts | 45° |
| 2026-04-23 17:49 | 54.90001 | 12.44930 | 33827 ft | 425 kts | 45° |
| 2026-04-23 17:49 | 54.92004 | 12.48709 | 34131 ft | 424 kts | 45° |
| 2026-04-23 17:49 | 54.93998 | 12.52478 | 34389 ft | 423 kts | 45° |
| 2026-04-23 17:50 | 54.95986 | 12.56241 | 34612 ft | 423 kts | 45° |
| 2026-04-23 17:50 | 54.99944 | 12.63753 | 35019 ft | 424 kts | 45° |
| 2026-04-23 17:50 | 55.01933 | 12.67538 | 35229 ft | 423 kts | 45° |
| 2026-04-23 17:51 | 55.03919 | 12.71320 | 35440 ft | 423 kts | 45° |
| 2026-04-23 17:51 | 55.05905 | 12.75110 | 35624 ft | 423 kts | 44° |
| 2026-04-23 17:51 | 55.09873 | 12.82700 | 36003 ft | 423 kts | 44° |
| 2026-04-23 17:52 | 55.11857 | 12.86503 | 36184 ft | 423 kts | 44° |
| 2026-04-23 17:52 | 55.15812 | 12.94104 | 36519 ft | 423 kts | 44° |
| 2026-04-23 17:52 | 55.17790 | 12.97915 | 36683 ft | 423 kts | 44° |
| 2026-04-23 17:53 | 55.21716 | 13.05494 | 36994 ft | 423 kts | 44° |
| 2026-04-23 17:53 | 55.23689 | 13.09314 | 37114 ft | 423 kts | 44° |
| 2026-04-23 17:54 | 55.27663 | 13.17020 | 37116 ft | 430 kts | 44° |
| 2026-04-23 17:54 | 55.33729 | 13.28835 | 37110 ft | 438 kts | 44° |
| 2026-04-23 17:55 | 55.39813 | 13.40750 | 37105 ft | 438 kts | 44° |
| 2026-04-23 17:56 | 55.43885 | 13.48712 | 37105 ft | 437 kts | 42° |
| 2026-04-23 17:56 | 55.50321 | 13.60025 | 37105 ft | 435 kts | 40° |
| 2026-04-23 17:57 | 55.54612 | 13.67556 | 37067 ft | 435 kts | 40° |
| 2026-04-23 17:58 | 55.60993 | 13.78902 | 37098 ft | 436 kts | 39° |
| 2026-04-23 17:58 | 55.65237 | 13.86482 | 37092 ft | 435 kts | 40° |
| 2026-04-23 17:59 | 55.69510 | 13.94147 | 37085 ft | 435 kts | 39° |
| 2026-04-23 17:59 | 55.73751 | 14.01785 | 37082 ft | 434 kts | 39° |
| 2026-04-23 18:00 | 55.77273 | 14.08149 | 37077 ft | 434 kts | 39° |
| 2026-04-23 18:00 | 55.82186 | 14.17052 | 37078 ft | 434 kts | 39° |
| 2026-04-23 18:01 | 55.86406 | 14.24728 | 37081 ft | 434 kts | 39° |
| 2026-04-23 18:01 | 55.90626 | 14.32427 | 37287 ft | 434 kts | 39° |
| 2026-04-23 18:01 | 55.92728 | 14.36274 | 37475 ft | 431 kts | 39° |
| 2026-04-23 18:02 | 55.94098 | 14.38790 | 37890 ft | 423 kts | 39° |
| 2026-04-23 18:02 | 55.96807 | 14.43770 | 38409 ft | 416 kts | 39° |
| 2026-04-23 18:02 | 55.98795 | 14.47421 | 38545 ft | 415 kts | 39° |
| 2026-04-23 18:02 | 56.00803 | 14.51111 | 38655 ft | 415 kts | 39° |
| 2026-04-23 18:03 | 56.02816 | 14.54818 | 38754 ft | 415 kts | 39° |
| 2026-04-23 18:03 | 56.06829 | 14.62231 | 38902 ft | 415 kts | 39° |
| 2026-04-23 18:04 | 56.10843 | 14.69672 | 39016 ft | 415 kts | 39° |
| 2026-04-23 18:04 | 56.14863 | 14.77146 | 39050 ft | 418 kts | 39° |
| 2026-04-23 18:05 | 56.18887 | 14.84652 | 39045 ft | 422 kts | 39° |
| 2026-04-23 18:05 | 56.22968 | 14.92294 | 39036 ft | 426 kts | 40° |
| 2026-04-23 18:06 | 56.27084 | 15.00027 | 39031 ft | 429 kts | 40° |
| 2026-04-23 18:06 | 56.31221 | 15.07826 | 39023 ft | 432 kts | 40° |
| 2026-04-23 18:07 | 56.35342 | 15.15621 | 39023 ft | 433 kts | 40° |
| 2026-04-23 18:07 | 56.39499 | 15.23511 | 39027 ft | 434 kts | 40° |
| 2026-04-23 18:08 | 56.42948 | 15.30078 | 39031 ft | 434 kts | 40° |
| 2026-04-23 18:08 | 56.47799 | 15.39344 | 39038 ft | 434 kts | 40° |
| 2026-04-23 18:09 | 56.51948 | 15.47298 | 39043 ft | 435 kts | 40° |
| 2026-04-23 18:09 | 56.56068 | 15.55223 | 39050 ft | 435 kts | 40° |
| 2026-04-23 18:10 | 56.60211 | 15.63219 | 39056 ft | 435 kts | 40° |
| 2026-04-23 18:10 | 56.64351 | 15.71239 | 39059 ft | 435 kts | 40° |
| 2026-04-23 18:11 | 56.68489 | 15.79280 | 39055 ft | 435 kts | 40° |
| 2026-04-23 18:11 | 56.72623 | 15.87341 | 39054 ft | 436 kts | 40° |
| 2026-04-23 18:12 | 56.76726 | 15.95370 | 39056 ft | 436 kts | 40° |
| 2026-04-23 18:12 | 56.80849 | 16.03468 | 39049 ft | 435 kts | 40° |
| 2026-04-23 18:13 | 56.84958 | 16.11566 | 39051 ft | 434 kts | 40° |
| 2026-04-23 18:13 | 56.89057 | 16.19670 | 39055 ft | 433 kts | 40° |
| 2026-04-23 18:14 | 56.92451 | 16.26405 | 39055 ft | 433 kts | 40° |
| 2026-04-23 18:14 | 56.97186 | 16.35829 | 39058 ft | 432 kts | 40° |
| 2026-04-23 18:15 | 57.01240 | 16.43931 | 39063 ft | 431 kts | 40° |
| 2026-04-23 18:15 | 57.05289 | 16.52050 | 39061 ft | 430 kts | 40° |
| 2026-04-23 18:16 | 57.09322 | 16.60164 | 39064 ft | 429 kts | 41° |
| 2026-04-23 18:16 | 57.13338 | 16.68273 | 39064 ft | 428 kts | 41° |
| 2026-04-23 18:17 | 57.19307 | 16.80377 | 39064 ft | 427 kts | 41° |
| 2026-04-23 18:17 | 57.23286 | 16.88481 | 39060 ft | 425 kts | 41° |
| 2026-04-23 18:18 | 57.27248 | 16.96579 | 39056 ft | 425 kts | 41° |
| 2026-04-23 18:18 | 57.31202 | 17.04689 | 39065 ft | 424 kts | 41° |
| 2026-04-23 18:19 | 57.35121 | 17.12753 | 39066 ft | 424 kts | 41° |
| 2026-04-23 18:19 | 57.39058 | 17.20883 | 39055 ft | 424 kts | 41° |
| 2026-04-23 18:20 | 57.42985 | 17.29021 | 39054 ft | 423 kts | 41° |
| 2026-04-23 18:20 | 57.46910 | 17.37182 | 39054 ft | 423 kts | 41° |
| 2026-04-23 18:21 | 57.50805 | 17.45310 | 39052 ft | 423 kts | 41° |
| 2026-04-23 18:21 | 57.54712 | 17.53490 | 39056 ft | 423 kts | 41° |
| 2026-04-23 18:22 | 57.58616 | 17.61694 | 39053 ft | 423 kts | 41° |
| 2026-04-23 18:22 | 57.62514 | 17.69914 | 39050 ft | 423 kts | 41° |
| 2026-04-23 18:23 | 57.68321 | 17.82214 | 39043 ft | 423 kts | 41° |
| 2026-04-23 18:24 | 57.74139 | 17.94602 | 39037 ft | 422 kts | 41° |
| 2026-04-23 18:25 | 57.79941 | 18.07023 | 39034 ft | 422 kts | 41° |
| 2026-04-23 18:25 | 57.83775 | 18.15265 | 39031 ft | 422 kts | 41° |
| 2026-04-23 18:26 | 57.87627 | 18.23577 | 39034 ft | 422 kts | 41° |
| 2026-04-23 18:26 | 57.91475 | 18.31909 | 39029 ft | 422 kts | 42° |
| 2026-04-23 18:27 | 57.95313 | 18.40251 | 39033 ft | 422 kts | 42° |
| 2026-04-23 18:27 | 57.99145 | 18.48608 | 39031 ft | 421 kts | 42° |
| 2026-04-23 18:28 | 58.02947 | 18.56928 | 39033 ft | 421 kts | 42° |
| 2026-04-23 18:28 | 58.06761 | 18.65307 | 39027 ft | 420 kts | 42° |
| 2026-04-23 18:29 | 58.10564 | 18.73690 | 39028 ft | 420 kts | 42° |
| 2026-04-23 18:29 | 58.14361 | 18.82090 | 39025 ft | 419 kts | 42° |
| 2026-04-23 18:30 | 58.17507 | 18.89072 | 39023 ft | 419 kts | 42° |
| 2026-04-23 18:30 | 58.21896 | 18.98849 | 39020 ft | 418 kts | 42° |
| 2026-04-23 18:31 | 58.25662 | 19.07269 | 39014 ft | 418 kts | 43° |
| 2026-04-23 18:31 | 58.28788 | 19.14282 | 39015 ft | 418 kts | 43° |
| 2026-04-23 18:32 | 58.32538 | 19.22724 | 39011 ft | 418 kts | 43° |
| 2026-04-23 18:32 | 58.36892 | 19.32563 | 39016 ft | 418 kts | 43° |
| 2026-04-23 18:33 | 58.40629 | 19.41040 | 39012 ft | 418 kts | 43° |
| 2026-04-23 18:33 | 58.43731 | 19.48101 | 39013 ft | 418 kts | 43° |
| 2026-04-23 18:34 | 58.47459 | 19.56613 | 39013 ft | 418 kts | 43° |
| 2026-04-23 18:34 | 58.51785 | 19.66531 | 39007 ft | 418 kts | 43° |
| 2026-04-23 18:35 | 58.54873 | 19.73637 | 39006 ft | 418 kts | 43° |
| 2026-04-23 18:35 | 58.58586 | 19.82208 | 39004 ft | 418 kts | 43° |
| 2026-04-23 18:36 | 58.62296 | 19.90805 | 39000 ft | 419 kts | 43° |
| 2026-04-23 18:36 | 58.66007 | 19.99435 | 38999 ft | 419 kts | 43° |
| 2026-04-23 18:37 | 58.69711 | 20.08081 | 38990 ft | 419 kts | 43° |
| 2026-04-23 18:37 | 58.73387 | 20.16694 | 38990 ft | 420 kts | 43° |
| 2026-04-23 18:38 | 58.77084 | 20.25388 | 38993 ft | 420 kts | 43° |
| 2026-04-23 18:38 | 58.80781 | 20.34114 | 38991 ft | 420 kts | 43° |
| 2026-04-23 18:39 | 58.84471 | 20.42857 | 38988 ft | 420 kts | 43° |
| 2026-04-23 18:39 | 58.88163 | 20.51634 | 38985 ft | 421 kts | 43° |
| 2026-04-23 18:40 | 58.91823 | 20.60366 | 38982 ft | 421 kts | 43° |
| 2026-04-23 18:40 | 58.95511 | 20.69181 | 38976 ft | 421 kts | 43° |
| 2026-04-23 18:41 | 58.99193 | 20.78013 | 38971 ft | 418 kts | 43° |
| 2026-04-23 18:41 | 59.00990 | 20.82353 | 38969 ft | 407 kts | 43° |
| 2026-04-23 18:41 | 59.02741 | 20.86595 | 38901 ft | 400 kts | 43° |
| 2026-04-23 18:41 | 59.04434 | 20.90919 | 38683 ft | 405 kts | 46° |
| 2026-04-23 18:42 | 59.06002 | 20.95428 | 38421 ft | 411 kts | 50° |
| 2026-04-23 18:42 | 59.07467 | 21.00196 | 38111 ft | 410 kts | 50° |
| 2026-04-23 18:42 | 59.08952 | 21.04931 | 37844 ft | 409 kts | 49° |
| 2026-04-23 18:42 | 59.10448 | 21.09637 | 37572 ft | 410 kts | 49° |
| 2026-04-23 18:43 | 59.11946 | 21.14360 | 37304 ft | 410 kts | 49° |
| 2026-04-23 18:43 | 59.13435 | 21.19085 | 37037 ft | 410 kts | 50° |
| 2026-04-23 18:43 | 59.14919 | 21.23821 | 36777 ft | 409 kts | 50° |
| 2026-04-23 18:43 | 59.16397 | 21.28558 | 36518 ft | 409 kts | 50° |
| 2026-04-23 18:44 | 59.17872 | 21.33301 | 36260 ft | 409 kts | 50° |
| 2026-04-23 18:44 | 59.19346 | 21.38046 | 36025 ft | 409 kts | 50° |
| 2026-04-23 18:44 | 59.20795 | 21.42725 | 35770 ft | 408 kts | 49° |
| 2026-04-23 18:44 | 59.22261 | 21.47466 | 35524 ft | 408 kts | 49° |
| 2026-04-23 18:45 | 59.23723 | 21.52203 | 35280 ft | 407 kts | 49° |
| 2026-04-23 18:45 | 59.25183 | 21.56943 | 34854 ft | 408 kts | 49° |
| 2026-04-23 18:45 | 59.26649 | 21.61709 | 34193 ft | 411 kts | 49° |
| 2026-04-23 18:45 | 59.28126 | 21.66523 | 33306 ft | 415 kts | 49° |
| 2026-04-23 18:46 | 59.29604 | 21.71358 | 32648 ft | 412 kts | 49° |
| 2026-04-23 18:46 | 59.31048 | 21.76098 | 31947 ft | 411 kts | 49° |
| 2026-04-23 18:46 | 59.32506 | 21.80890 | 31232 ft | 410 kts | 49° |
| 2026-04-23 18:46 | 59.33960 | 21.85677 | 30614 ft | 407 kts | 49° |
| 2026-04-23 18:47 | 59.35392 | 21.90408 | 30151 ft | 400 kts | 49° |
| 2026-04-23 18:47 | 59.36802 | 21.95066 | 29626 ft | 395 kts | 49° |
| 2026-04-23 18:47 | 59.38189 | 21.99654 | 29111 ft | 388 kts | 49° |
| 2026-04-23 18:47 | 59.39551 | 22.04167 | 28641 ft | 381 kts | 49° |
| 2026-04-23 18:48 | 59.40892 | 22.08615 | 28169 ft | 375 kts | 49° |
| 2026-04-23 18:48 | 59.42210 | 22.12994 | 27704 ft | 370 kts | 49° |
| 2026-04-23 18:48 | 59.43491 | 22.17255 | 27249 ft | 364 kts | 49° |
| 2026-04-23 18:48 | 59.44768 | 22.21512 | 26792 ft | 359 kts | 49° |
| 2026-04-23 18:49 | 59.46029 | 22.25720 | 26355 ft | 361 kts | 49° |
| 2026-04-23 18:49 | 59.47357 | 22.30096 | 25892 ft | 382 kts | 49° |
| 2026-04-23 18:49 | 59.48729 | 22.34652 | 25410 ft | 391 kts | 50° |
| 2026-04-23 18:49 | 59.50105 | 22.39282 | 24921 ft | 391 kts | 50° |
| 2026-04-23 18:50 | 59.51005 | 22.42334 | 24604 ft | 389 kts | 50° |
| 2026-04-23 18:50 | 59.52812 | 22.48472 | 23928 ft | 384 kts | 50° |
| 2026-04-23 18:50 | 59.54138 | 22.52986 | 23426 ft | 379 kts | 50° |
| 2026-04-23 18:50 | 59.55451 | 22.57452 | 22949 ft | 372 kts | 50° |
| 2026-04-23 18:51 | 59.56733 | 22.61820 | 22492 ft | 366 kts | 50° |
| 2026-04-23 18:51 | 59.57998 | 22.66132 | 22037 ft | 359 kts | 50° |
| 2026-04-23 18:51 | 59.59224 | 22.70312 | 21588 ft | 354 kts | 50° |
| 2026-04-23 18:51 | 59.60444 | 22.74480 | 21150 ft | 348 kts | 50° |
| 2026-04-23 18:52 | 59.61646 | 22.78593 | 20718 ft | 343 kts | 50° |
| 2026-04-23 18:52 | 59.62831 | 22.82655 | 20284 ft | 339 kts | 50° |
| 2026-04-23 18:52 | 59.63999 | 22.86664 | 19855 ft | 334 kts | 50° |
| 2026-04-23 18:52 | 59.65152 | 22.90629 | 19437 ft | 331 kts | 50° |
| 2026-04-23 18:53 | 59.66295 | 22.94561 | 19021 ft | 336 kts | 50° |
| 2026-04-23 18:53 | 59.67522 | 22.98723 | 18575 ft | 361 kts | 51° |
| 2026-04-23 18:53 | 59.68798 | 23.03094 | 18104 ft | 371 kts | 51° |
| 2026-04-23 18:53 | 59.70081 | 23.07546 | 17601 ft | 372 kts | 52° |
| 2026-04-23 18:54 | 59.71352 | 23.11989 | 17131 ft | 368 kts | 52° |
| 2026-04-23 18:54 | 59.72602 | 23.16365 | 16663 ft | 362 kts | 52° |
| 2026-04-23 18:54 | 59.73813 | 23.20604 | 16221 ft | 355 kts | 52° |
| 2026-04-23 18:54 | 59.75021 | 23.24825 | 15778 ft | 349 kts | 52° |
| 2026-04-23 18:55 | 59.76209 | 23.28977 | 15314 ft | 343 kts | 52° |
| 2026-04-23 18:55 | 59.77375 | 23.33058 | 14904 ft | 338 kts | 52° |
| 2026-04-23 18:55 | 59.78527 | 23.37092 | 14485 ft | 333 kts | 52° |
| 2026-04-23 18:55 | 59.79661 | 23.41072 | 14062 ft | 329 kts | 53° |
| 2026-04-23 18:56 | 59.80405 | 23.43686 | 13782 ft | 327 kts | 53° |
| 2026-04-23 18:56 | 59.81873 | 23.48865 | 13458 ft | 313 kts | 53° |
| 2026-04-23 18:56 | 59.82914 | 23.52561 | 13331 ft | 300 kts | 53° |
| 2026-04-23 18:56 | 59.83916 | 23.56121 | 13130 ft | 290 kts | 52° |
| 2026-04-23 18:57 | 59.84892 | 23.59575 | 12846 ft | 284 kts | 52° |
| 2026-04-23 18:57 | 59.85857 | 23.62984 | 12437 ft | 282 kts | 52° |
| 2026-04-23 18:57 | 59.86804 | 23.66333 | 12028 ft | 281 kts | 53° |
| 2026-04-23 18:57 | 59.87757 | 23.69717 | 11633 ft | 280 kts | 53° |
| 2026-04-23 18:58 | 59.88704 | 23.73089 | 11227 ft | 279 kts | 53° |
| 2026-04-23 18:58 | 59.89636 | 23.76421 | 11056 ft | 276 kts | 53° |
| 2026-04-23 18:58 | 59.90581 | 23.79795 | 10946 ft | 280 kts | 53° |
| 2026-04-23 18:58 | 59.91444 | 23.83276 | 10807 ft | 282 kts | 61° |
| 2026-04-23 18:59 | 59.92058 | 23.87011 | 10580 ft | 283 kts | 65° |
| 2026-04-23 18:59 | 59.92643 | 23.90750 | 10234 ft | 282 kts | 65° |
| 2026-04-23 18:59 | 59.93233 | 23.94469 | 9862 ft | 280 kts | 65° |
| 2026-04-23 18:59 | 59.93821 | 23.98166 | 9452 ft | 279 kts | 65° |
| 2026-04-23 19:00 | 59.94396 | 24.01790 | 9135 ft | 278 kts | 66° |
| 2026-04-23 19:00 | 59.94979 | 24.05465 | 8808 ft | 277 kts | 66° |
| 2026-04-23 19:00 | 59.95555 | 24.09116 | 8487 ft | 275 kts | 66° |
| 2026-04-23 19:00 | 59.96130 | 24.12760 | 8162 ft | 275 kts | 66° |
| 2026-04-23 19:01 | 59.96700 | 24.16391 | 7848 ft | 273 kts | 67° |
| 2026-04-23 19:01 | 59.97266 | 24.19997 | 7498 ft | 272 kts | 67° |
| 2026-04-23 19:01 | 59.97974 | 24.23430 | 7167 ft | 261 kts | 50° |
| 2026-04-23 19:01 | 59.99199 | 24.26058 | 7029 ft | 261 kts | 38° |
| 2026-04-23 19:02 | 60.00579 | 24.28406 | 6910 ft | 259 kts | 36° |
| 2026-04-23 19:02 | 60.01950 | 24.30727 | 6625 ft | 258 kts | 37° |
| 2026-04-23 19:02 | 60.03272 | 24.33081 | 6242 ft | 258 kts | 39° |
| 2026-04-23 19:02 | 60.04582 | 24.35529 | 5833 ft | 258 kts | 40° |
| 2026-04-23 19:03 | 60.05876 | 24.38017 | 5447 ft | 257 kts | 40° |
| 2026-04-23 19:03 | 60.07156 | 24.40517 | 5060 ft | 256 kts | 40° |
| 2026-04-23 19:03 | 60.08428 | 24.43011 | 4665 ft | 256 kts | 41° |
| 2026-04-23 19:03 | 60.09695 | 24.45500 | 4297 ft | 254 kts | 41° |
| 2026-04-23 19:04 | 60.10957 | 24.47976 | 3939 ft | 253 kts | 41° |
| 2026-04-23 19:04 | 60.12212 | 24.50441 | 3571 ft | 252 kts | 41° |
| 2026-04-23 19:04 | 60.13464 | 24.52899 | 3208 ft | 251 kts | 41° |
| 2026-04-23 19:04 | 60.14707 | 24.55343 | 2858 ft | 250 kts | 41° |
| 2026-04-23 19:05 | 60.15939 | 24.57768 | 2603 ft | 244 kts | 41° |
| 2026-04-23 19:05 | 60.17105 | 24.60071 | 2509 ft | 233 kts | 42° |
| 2026-04-23 19:05 | 60.18237 | 24.62306 | 2421 ft | 223 kts | 41° |
| 2026-04-23 19:05 | 60.19321 | 24.64449 | 2304 ft | 214 kts | 41° |
| 2026-04-23 19:06 | 60.20386 | 24.66602 | 2302 ft | 220 kts | 43° |
| 2026-04-23 19:06 | 60.21420 | 24.68792 | 2294 ft | 209 kts | 44° |
| 2026-04-23 19:06 | 60.22374 | 24.70869 | 2298 ft | 196 kts | 44° |
| 2026-04-23 19:06 | 60.23263 | 24.72809 | 2293 ft | 181 kts | 44° |
| 2026-04-23 19:07 | 60.24096 | 24.74626 | 2301 ft | 178 kts | 44° |
| 2026-04-23 19:07 | 60.24931 | 24.76449 | 2118 ft | 177 kts | 44° |
| 2026-04-23 19:07 | 60.25757 | 24.78259 | 1851 ft | 176 kts | 44° |
| 2026-04-23 19:07 | 60.26582 | 24.80064 | 1592 ft | 175 kts | 44° |
| 2026-04-23 19:08 | 60.27396 | 24.81849 | 1470 ft | 168 kts | 44° |
| 2026-04-23 19:08 | 60.28156 | 24.83515 | 1673 ft | 155 kts | 44° |
| 2026-04-23 19:08 | 60.28909 | 24.85146 | 1321 ft | 159 kts | 44° |
| 2026-04-23 19:08 | 60.29663 | 24.86775 | 792 ft | 159 kts | 45° |
| 2026-04-23 19:09 | 60.30412 | 24.88397 | 400 ft | 153 kts | 45° |
| 2026-04-23 19:09 | 60.31095 | 24.89947 | 304 ft | 141 kts | 45° |
| 2026-04-23 19:09 | 60.31699 | 24.91373 | 160 ft | 123 kts | 39° |
| 2026-04-23 19:09 | 60.32182 | 24.92306 | 166 ft | 67 kts | 49° |
| 2026-04-23 19:10 | 60.32348 | 24.92716 | 168 ft | 11 kts | 49° |
| 2026-04-23 19:10 | 60.32445 | 24.93067 | 172 ft | 40 kts | 71° |
| 2026-04-23 19:10 | 60.32470 | 24.93312 | 175 ft | 2 kts | 78° |
| 2026-04-23 19:10 | 60.32480 | 24.93408 | 175 ft | 11 kts | 77° |
| 2026-04-23 19:11 | 60.32486 | 24.93459 | 175 ft | 0 kts | 76° |
| 2026-04-23 19:11 | 60.32487 | 24.93463 | 175 ft | 2 kts | 76° |
| 2026-04-23 19:12 | 60.32495 | 24.93530 | 176 ft | 15 kts | 76° |
| 2026-04-23 19:12 | 60.32553 | 24.93964 | 178 ft | 27 kts | 61° |
| 2026-04-23 19:12 | 60.32672 | 24.94213 | 180 ft | 25 kts | 49° |
| 2026-04-23 19:12 | 60.32791 | 24.94480 | 182 ft | 26 kts | 46° |
| 2026-04-23 19:13 | 60.32916 | 24.94730 | 193 ft | 26 kts | 43° |
| 2026-04-23 19:13 | 60.33040 | 24.95000 | 184 ft | 27 kts | 46° |
| 2026-04-23 19:13 | 60.33166 | 24.95295 | 180 ft | 29 kts | 52° |
| 2026-04-23 19:13 | 60.33162 | 24.95596 | 175 ft | 24 kts | 136° |
| 2026-04-23 19:14 | 60.33025 | 24.95824 | 172 ft | 27 kts | 148° |
| 2026-04-23 19:14 | 60.32856 | 24.96019 | 170 ft | 29 kts | 150° |
| 2026-04-23 19:14 | 60.32715 | 24.96177 | 167 ft | 23 kts | 150° |
| 2026-04-23 19:14 | 60.32582 | 24.96341 | 164 ft | 6 kts | 150° |
| 2026-04-23 19:15 | 60.32554 | 24.96373 | 164 ft | 16 kts | 150° |
| 2026-04-23 19:15 | 60.32382 | 24.96575 | 163 ft | 36 kts | 149° |
| 2026-04-23 19:15 | 60.32320 | 24.96648 | 163 ft | 1 kts | 149° |
| 2026-04-23 19:15 | 60.32304 | 24.96667 | 164 ft | 5 kts | 149° |
| 2026-04-23 19:16 | 60.32289 | 24.96684 | 164 ft | 0 kts | 149° |
| 2026-04-23 19:16 | 60.32287 | 24.96687 | 164 ft | 3 kts | 149° |
| 2026-04-23 19:16 | 60.32244 | 24.96738 | 163 ft | 0 kts | 149° |
| 2026-04-23 19:17 | 60.32217 | 24.96769 | 163 ft | 13 kts | 150° |
| 2026-04-23 19:17 | 60.32103 | 24.96902 | 163 ft | 23 kts | 150° |
| 2026-04-23 19:17 | 60.31981 | 24.97031 | 162 ft | 15 kts | 154° |
| 2026-04-23 19:17 | 60.31935 | 24.97066 | 162 ft | 3 kts | 185° |
| 2026-04-23 19:18 | 60.31918 | 24.97037 | 162 ft | 5 kts | 234° |
| 2026-04-23 19:18 | 60.31905 | 24.96985 | 162 ft | 0 kts | 244° |
| 2026-04-23 19:18 | 60.31902 | 24.96975 | 162 ft | 0 kts | 245° |